This is the latest recevied weather packets stored in our database for station/object K4DFD-13. If no packets are shown the sender has not sent any weather packets the latest 10 day(s).
| Time | Temp. | Humidity | Pressure | Rain* | Wind** | Luminosity | Snow |
|---|---|---|---|---|---|---|---|
| 1777870709 | 10° C | 53% | 1017 hPa | 0 mm | - | - | - |
| 1777870413 | 10° C | 53% | 1016.9 hPa | 0 mm | - | - | - |
| 1777870112 | 9.44° C | 53% | 1016.9 hPa | 0 mm | - | - | - |
| 1777869807 | 9.44° C | 53% | 1016.9 hPa | 0 mm | - | - | - |
| 1777869506 | 9.44° C | 53% | 1016.8 hPa | 0 mm | - | - | - |
| 1777869206 | 9.44° C | 53% | 1016.8 hPa | 0 mm | - | - | - |
| 1777868906 | 9.44° C | 53% | 1016.8 hPa | 0 mm | - | - | - |
| 1777868605 | 9.44° C | 53% | 1016.7 hPa | 0 mm | - | - | - |
| 1777868305 | 9.44° C | 53% | 1016.7 hPa | 0 mm | - | - | - |
| 1777868012 | 10° C | 52% | 1016.7 hPa | 0 mm | - | - | - |
| 1777867705 | 10° C | 52% | 1016.6 hPa | 0 mm | - | - | - |
| 1777867404 | 10° C | 52% | 1016.6 hPa | 0 mm | - | - | - |
| 1777867104 | 10° C | 52% | 1016.6 hPa | 0 mm | - | - | - |
| 1777866503 | 10° C | 52% | 1016.7 hPa | 0 mm | - | - | - |
| 1777866210 | 10° C | 51% | 1016.8 hPa | 0 mm | - | - | - |
| 1777865622 | 10° C | 50% | 1016.9 hPa | 0 mm | - | - | - |
| 1777864100 | 10° C | 51% | 1016.8 hPa | 0 mm | - | - | - |
| 1777847756 | 16.67° C | 31% | 1015.5 hPa | 0 mm | - | - | - |
| 1777847456 | 16.67° C | 30% | 1015.4 hPa | 0 mm | - | - | - |
| 1777847156 | 16.67° C | 30% | 1015.4 hPa | 0 mm | - | - | - |
| 1777846560 | 16.67° C | 30% | 1015.5 hPa | 0 mm | - | - | - |
| 1777845954 | 16.67° C | 30% | 1015.5 hPa | 0 mm | - | - | - |
| 1777844773 | 16.11° C | 31% | 1015.6 hPa | 0 mm | - | - | - |
| 1777844172 | 16.11° C | 29% | 1015.7 hPa | 0 mm | - | - | - |
| 1777843551 | 16.67° C | 30% | 1015.7 hPa | 0 mm | - | - | - |
* Rain latest hour (hover to see other rain measurements)
** Current wind speed in m/s (hover to see current wind gust speed)